Tiempo atmosférico en la estación meteorológica de Hierro Aeropuerto, Santa Cruz de Tenerife (32 m.)



Fecha
DESCASC
Temp. máxima en grados centígrados (hora)
DESCASC
Temp. mínima en grados centígrados (hora)
DESCASC
Temp. media en grados centígrados
DESCASC
Racha de viento máxima en m/sg (hora)
DESCASC
Velocidad máxima media en intervalos de 10 minutos(hora)
DESCASC
Precipitaciones diarias en mm
DESCASC
Precipitaciones de 00:00 a 06:00 en mm
DESCASC
Precipitaciones de 06:00 a 12:00 en mm
DESCASC
Precipitaciones de 12:00 a 18:00 en mm
DESCASC
Precipitaciones de 18:00 a 24:00 en mm
DESCASC
18-08-2019 26.3 (14:20) 22.8 (07:20) 24.5 18.06 (00:10) 9.44 (21:50) 0 0 0 0 0
17-08-2019 26.6 (15:40) 23 (07:40) 24.8 16.11 (22:20) 9.72 (01:00) 0 0 0 0 0
16-08-2019 26 (14:20) 22.7 (05:50) 24.4 15.28 (22:10) 9.72 (23:10) 0 0 0 0 0
15-08-2019 25.8 (15:40) 22 (00:00) 23.9 14.44 (17:40) 8.89 (21:30) 0 0 0 0 0
14-08-2019 24.8 (15:40) 21.9 (00:00) 23.3 13.33 (03:30) 9.72 (02:50) 0 0 0 0 0
13-08-2019 25.2 (13:40) 22.4 (00:00) 23.8 13.33 (05:40) 10.83 (23:20) 0 0 0 0 0
12-08-2019 25.2 (13:00) 22.8 (00:00) 24 13.89 (03:30) 10.83 (03:30) 0 0 0 0 0
11-08-2019 27.2 (15:10) 23.1 (00:00) 25.2 15 (21:00) 11.11 (21:00) 0 0 0 0 0
10-08-2019 27.6 (14:10) 23.3 (00:00) 25.4 14.44 (14:20) 10 (23:40) 0 0 0 0 0
09-08-2019 25.5 (15:10) 22.6 (00:00) 24.1 9.72 (07:20) 7.5 (07:20) 0 0 0 0 0
08-08-2019 26.3 (17:10) 22.3 (00:00) 24.3 9.17 (05:40) 7.22 (01:50) 0 0 0 0 0
07-08-2019 -- (--) -- (--) -- -- (--) -- (--) -- -- -- 0 0
06-08-2019 -- (--) -- (--) -- -- (--) -- (--) -- 0 0 -- --
05-08-2019 25.6 (14:30) 22.2 (00:00) 23.9 12.5 (21:30) 8.89 (21:20) 0 0 0 0 0
04-08-2019 26.7 (16:10) 21.8 (00:00) 24.3 12.5 (16:20) 8.61 (19:10) 0 0 0 0 0
03-08-2019 24.6 (17:50) 21.7 (00:00) 23.2 12.5 (19:30) 9.44 (14:30) 0 0 0 0 0
02-08-2019 25.6 (14:20) 21.7 (00:00) 23.7 12.5 (05:00) 9.72 (06:00) 0 0 0 0 0
01-08-2019 25.4 (13:50) 21.5 (00:00) 23.4 12.78 (23:40) 9.72 (04:20) 0 0 0 0 0
31-07-2019 24.9 (14:50) 21.5 (00:00) 23.2 -- (--) -- (--) 0 0 0 0 0
30-07-2019 25 (13:10) 21.9 (00:00) 23.4 15 (23:10) 11.11 (23:00) 0 0 0 0 0
29-07-2019 25.2 (13:10) 21.9 (00:00) 23.6 12.5 (17:50) 8.61 (18:30) 0 0 0 0 0
28-07-2019 25.6 (17:10) 21.8 (00:00) 23.7 13.89 (18:00) 10.56 (21:20) 0 0 0 0 0
27-07-2019 24.5 (14:10) 22 (00:00) 23.3 14.44 (05:30) 10.56 (05:30) 0 0 0 0 0
26-07-2019 26 (15:50) 22.4 (00:00) 24.2 15.28 (21:00) 10 (02:00) 0 0 0 0 0
25-07-2019 25.5 (17:50) 21 (00:00) 23.3 15 (20:00) 11.11 (19:50) 0 0 0 0 0
24-07-2019 24.9 (17:10) 21.5 (00:00) 23.2 15 (18:00) 11.67 (18:40) 0 0 0 0 0
23-07-2019 25.1 (15:20) 21.1 (00:00) 23.1 15.28 (03:00) 12.22 (03:00) 0 0 0 0 0
22-07-2019 24.3 (14:50) 21.3 (00:00) 22.8 14.44 (23:30) 11.11 (17:10) 0 0 0 0 0
21-07-2019 25.5 (15:20) 21.8 (00:00) 23.6 13.33 (07:30) 10.56 (07:40) 0 0 0 0 0

Gráficas

Temp. máximas Temp. mínimas Temp. medias Precipitaciones Rachas de viento máximas Velocidades máximas media en intervalos de 10 minutos

Datos horarios

Fecha y hora oficial Temperatura (ºC) Velocidad del viento (km/h) Dirección del viento Racha (km/h) Dirección de racha Precipitación (mm) Presión (hPa) Tendencia (hPa) Humedad (%)
2019-08-19 23:00:00 22.9 27 Noroeste 41 Noroeste 0 1015.1 2.2 85
2019-08-19 22:00:00 23 27 Noroeste 41 Noroeste 0 1014.1 1.4 85
2019-08-19 21:00:00 23.2 26 Noroeste 45 Noroeste 0 1013.7 1 84
2019-08-19 20:00:00 23.8 28 Noroeste 50 Noroeste 0 1012.9 0.2 80
2019-08-19 19:00:00 24.8 32 Noroeste 55 Noroeste 0 1012.7 -0.4 76
2019-08-19 18:00:00 25.2 31 Noroeste 54 Noroeste 0 1012.7 -0.6 73
2019-08-19 17:00:00 25.2 31 Noroeste 46 Noroeste 0 1012.7 -0.7 75
2019-08-19 16:00:00 25.3 26 Noroeste 42 Noroeste 0 1013.1 -0.3 75
2019-08-19 15:00:00 25.6 26 Noroeste 42 Noroeste 0 1013.3 0 73
2019-08-19 14:00:00 25.1 22 Noroeste 37 Norte 0 1013.4 0.5 75
2019-08-19 13:00:00 24.7 23 Noroeste 39 Noroeste 0 1013.4 0.7 77
2019-08-19 12:00:00 24.5 24 Noroeste 35 Noroeste 0 1013.3 1.1 78
2019-08-19 11:00:00 23.7 22 Noroeste 37 Noroeste 0 1012.9 1.1 80
2019-08-19 10:00:00 23.2 23 Noroeste 37 Norte 0 1012.7 1.6 83
2019-08-19 09:00:00 22.6 21 Noroeste 39 Norte 0 1012.2 1.1 85
2019-08-19 08:00:00 22.4 24 Noroeste 42 Noroeste 0 1011.8 0.7 84
2019-08-19 07:00:00 22.5 27 Noroeste 46 Noroeste 0 1011.1 -0.3 81
2019-08-19 06:00:00 22.2 30 Noroeste 46 Oeste 0 1011.1 -0.7 85
2019-08-19 05:00:00 22.7 26 Noroeste 52 Noroeste 0 1011.1 -0.8 81
2019-08-19 04:00:00 22.6 27 Noroeste 48 Noroeste 0 1011.4 -0.9 84
2019-08-19 03:00:00 22.8 31 Noroeste 48 Noroeste 0 1011.8 -0.6 84
2019-08-19 02:00:00 23 30 Noroeste 48 Oeste 0 1011.9 -0.4 83
2019-08-19 01:00:00 23.1 32 Noroeste 54 Noroeste 0 1012.3 0.8 83
2019-08-19 00:00:00 23.1 33 Noroeste 50 Noroeste 0 1012.4 1.5 83
2019-08-18 23:00:00 23.2 29 Noroeste 52 Noroeste 0 1012.3 1.4 83
2019-08-18 22:00:00 23.5 32 Noroeste 48 Noroeste 0 1011.5 0.9 78
2019-08-18 21:00:00 23.5 29 Noroeste 50 Noroeste 0 1010.9 0 82
2019-08-18 20:00:00 23.7 24 Noroeste 42 Noroeste 0 1010.9 -0.3 82
2019-08-18 19:00:00 24.6 24 Noroeste 37 Noroeste 0 1010.6 -0.9 78
2019-08-18 18:00:00 24.3 25 Noroeste 39 Noroeste 0 1010.9 -0.9 80
2019-08-18 17:00:00 24.4 23 Noroeste 35 Norte 0 1011.2 -0.8 79
2019-08-18 16:00:00 24.9 21 Noroeste 41 Noroeste 0 1011.5 -0.4 77
2019-08-18 15:00:00 25.9 22 Norte 39 Norte 0 1011.8 -0.4 74
2019-08-18 14:00:00 25.4 20 Noroeste 39 Norte 0 1012 0.1 75
2019-08-18 13:00:00 25 24 Noroeste 42 Noroeste 0 1011.9 0.6 77
2019-08-18 12:00:00 24.4 25 Noroeste 45 Noroeste 0 1012.2 1.3 80
2019-08-18 11:00:00 23.9 27 Noroeste 46 Noroeste 0 1011.9 1.8 82
2019-08-18 10:00:00 23.5 26 Noroeste 54 Noroeste 0 1011.3 1.6 84
2019-08-18 09:00:00 23.1 22 Noroeste 46 Noroeste 0 1010.9 1.3 85
2019-08-18 08:00:00 23 27 Noroeste 46 Noroeste 0 1010.1 0.5 85
2019-08-18 07:00:00 23 26 Noroeste 46 Noroeste 0 1009.7 -0.1 86
2019-08-18 06:00:00 23.1 26 Noroeste 48 Noroeste 0 1009.6 -0.6 85
2019-08-18 05:00:00 23.1 28 Noroeste 55 Norte 0 1009.6 -0.7 85
2019-08-18 04:00:00 23.1 26 Noroeste 45 Noroeste 0 1009.8 -0.6 86
2019-08-18 03:00:00 23.3 26 Noroeste 58 Noroeste 0 1010.2 -0.4 86
2019-08-18 02:00:00 23.5 32 Noroeste 58 Noroeste 0 1010.3 -0.3 85
2019-08-18 01:00:00 23.7 30 Noroeste 65 Noroeste 0 1010.4 0.4 83
2019-08-18 00:00:00 23.6 30 Noroeste 52 Noroeste 0 1010.6 1 85
2019-08-17 23:00:00 23.8 31 Noroeste 58 Noroeste 0 1010.6 1 84
2019-08-17 22:00:00 24 34 Noroeste 54 Oeste 0 1010 0.6 83
2019-08-17 21:00:00 24 29 Noroeste 45 Noroeste 0 1009.6 0.1 84
2019-08-17 20:00:00 24.3 25 Noroeste 50 Noroeste 0 1009.6 0.2 82
2019-08-17 19:00:00 25.1 29 Noroeste 50 Norte 0 1009.4 -0.1 77
2019-08-17 18:00:00 25.4 28 Noroeste 46 Noroeste 0 1009.5 -0.7 77
2019-08-17 17:00:00 26 31 Noroeste 50 Noroeste 0 1009.4 -1.2 75
2019-08-17 16:00:00 26.2 34 Noroeste 55 Noroeste 0 1009.5 -1.4 74
2019-08-17 15:00:00 26.1 27 Noroeste 46 Noroeste 0 1010.2 -0.6 74
2019-08-17 14:00:00 25.7 27 Noroeste 46 Noroeste 0 1010.6 0 77
2019-08-17 13:00:00 25.3 28 Noroeste 46 Noroeste 0 1010.9 0.4 78
2019-08-17 12:00:00 24.8 34 Noroeste 50 Noroeste 0 1010.8 0.8 79
2019-08-17 11:00:00 24.1 33 Noroeste 52 Noroeste 0 1010.6 0.7 83
2019-08-17 10:00:00 23.6 31 Noroeste 46 Noroeste 0 1010.5 0.8 86
2019-08-17 09:00:00 23.2 25 Noroeste 39 Noroeste 0 1010 0.3 88
2019-08-17 08:00:00 23.1 19 Noroeste 39 Noroeste 0 1009.9 0.2 88
2019-08-17 07:00:00 23.1 17 Noroeste 32 Noroeste 0 1009.7 0.5 88
2019-08-17 06:00:00 23.2 21 Noroeste 45 Noroeste 0 1009.7 0.3 87
2019-08-17 05:00:00 23.3 22 Noroeste 46 Noroeste 0 1009.7 -0.4 86
2019-08-17 04:00:00 23.4 30 Noroeste 55 Norte 0 1009.2 -1.5 85
2019-08-17 03:00:00 23.5 30 Noroeste 55 Noroeste 0 1009.4 -1.4 86
2019-08-17 02:00:00 23.6 31 Noroeste 55 Noroeste 0 1010.1 -1.1 85
2019-08-17 01:00:00 23.7 35 Noroeste 54 Noroeste 0 1010.7 -0.3 84
2019-08-17 00:00:00 23.6 31 Noroeste 50 Noroeste 0 1010.8 0.3 84
2019-08-16 23:00:00 23.8 31 Noroeste 55 Noroeste 0 1011.2 1.1 83
2019-08-16 22:00:00 23.8 29 Noroeste 52 Noroeste 0 1011 0.8 83
2019-08-16 21:00:00 23.9 29 Noroeste 42 Noroeste 0 1010.5 0.1 83
2019-08-16 20:00:00 24.1 28 Noroeste 45 Noroeste 0 1010.1 -0.6 82
2019-08-16 19:00:00 24.4 27 Noroeste 46 Noroeste 0 1010.2 -0.7 81
2019-08-16 18:00:00 24.8 28 Noroeste 45 Noroeste 0 1010.4 -0.9 79
2019-08-16 17:00:00 25.2 25 Noroeste 48 Oeste 0 1010.7 -0.7 77
2019-08-16 16:00:00 25.3 24 Noroeste 42 Noroeste 0 1010.9 -1 76
2019-08-16 15:00:00 25.7 24 Noroeste 45 Noroeste 0 1011.3 -1.1 74
2019-08-16 14:00:00 25.5 28 Noroeste 46 Noroeste 0 1011.4 -0.7 74
2019-08-16 13:00:00 25.4 27 Noroeste 42 Noroeste 0 1011.9 0.1 74
2019-08-16 12:00:00 24.9 24 Noroeste 45 Noroeste 0 1012.4 0.4 76
2019-08-16 11:00:00 24.3 24 Noroeste 39 Noroeste 0 1012.1 0.1 78
2019-08-16 10:00:00 23.6 26 Noroeste 39 Noroeste 0 1011.8 0.4 79
2019-08-16 09:00:00 23.2 27 Noroeste 45 Noroeste 0 1012 0.7 81
2019-08-16 08:00:00 22.9 25 Noroeste 41 Noroeste 0 1012 0.5 83
2019-08-16 07:00:00 22.8 27 Noroeste 45 Noroeste 0 1011.4 -0.5 82
2019-08-16 06:00:00 22.8 27 Noroeste 45 Noroeste 0 1011.3 -0.8 84
2019-08-16 05:00:00 22.9 30 Noroeste 45 Noroeste 0 1011.5 -1.3 82
2019-08-16 04:00:00 23 28 Noroeste 42 Noroeste 0 1011.9 -1.3 82
2019-08-16 03:00:00 23 28 Noroeste 45 Noroeste 0 1012.1 -1.4 83
2019-08-16 02:00:00 23.1 27 Noroeste 50 Oeste 0 1012.8 -0.7 82
2019-08-16 01:00:00 23.3 28 Noroeste 46 Noroeste 0 1013.2 0.3 79
2019-08-16 00:00:00 23.4 32 Noroeste 50 Noroeste 0 1013.5 0.6 78
2019-08-15 23:00:00 23.4 28 Noroeste 45 Noroeste 0 1013.5 0.7 76
2019-08-15 22:00:00 23.5 31 Noroeste 50 Noroeste 0 1012.9 -0.1 77
2019-08-15 21:00:00 23.5 32 Noroeste 45 Noroeste 0 1012.9 -0.2 78
2019-08-15 20:00:00 23.7 28 Noroeste 45 Noroeste 0 1012.8 -0.5 77
2019-08-15 19:00:00 24.4 28 Noroeste 48 Noroeste 0 1013 -0.6 73
2019-08-15 18:00:00 25.1 27 Noroeste 52 Noroeste 0 1013.1 -1 71
2019-08-15 17:00:00 25.3 30 Noroeste 42 Noroeste 0 1013.3 -1 70
2019-08-15 16:00:00 25.2 27 Noroeste 39 Noroeste 0 1013.6 -1 71
2019-08-15 15:00:00 24.9 23 Noroeste 39 Noroeste 0 1014.1 -0.8 72
2019-08-15 14:00:00 24.9 25 Noroeste 42 Noroeste 0 1014.3 -0.4 70
2019-08-15 13:00:00 24.8 28 Noroeste 42 Noroeste 0 1014.6 0.4 69
2019-08-15 12:00:00 23.8 28 Norte 39 Norte 0 1014.9 0.9 74
2019-08-15 11:00:00 23.6 24 Norte 39 Norte 0 1014.7 0.8 75
2019-08-15 10:00:00 23 24 Noroeste 37 Norte 0 1014.2 0.2 75
2019-08-15 09:00:00 22.7 25 Noroeste 39 Noroeste 0 1014 0.2 75
2019-08-15 08:00:00 22.2 28 Noroeste 42 Noroeste 0 1013.9 0 76
2019-08-15 07:00:00 22.2 29 Norte 45 Norte 0 1014 -0.3 76
2019-08-15 06:00:00 22.1 29 Norte 39 Noroeste 0 1013.8 -1 76
2019-08-15 05:00:00 22.3 26 Norte 39 Noroeste 0 1013.9 -1.3 75
2019-08-15 04:00:00 22.4 29 Norte 42 Norte 0 1014.3 -1.1 75
2019-08-15 03:00:00 22.5 26 Noroeste 39 Noroeste 0 1014.8 -0.7 75
2019-08-15 02:00:00 22.6 25 Noroeste 39 Noroeste 0 1015.2 -0.4 77
2019-08-15 01:00:00 22.4 23 Noroeste 39 Noroeste 0 1015.4 0.1 77
2019-08-15 00:00:00 22.6 27 Noroeste 45 Noroeste 0 1015.5 0.8 77
2019-08-14 23:00:00 22.8 23 Noroeste 39 Norte 0 1015.6 1.2 80
2019-08-14 22:00:00 22.8 23 Norte 33 Norte 0 1015.3 0.8 80
2019-08-14 21:00:00 23 21 Noroeste 35 Norte 0 1014.7 -0.1 78
2019-08-14 20:00:00 23.1 25 Noroeste 33 Noroeste 0 1014.4 -0.4 76
2019-08-14 19:00:00 23.5 24 Noroeste 39 Norte 0 1014.5 -0.3 75
2019-08-14 18:00:00 23.5 26 Norte 39 Norte 0 1014.8 -0.3 77
2019-08-14 17:00:00 23.9 29 Norte 39 Norte 0 1014.8 -1 75
2019-08-14 16:00:00 24.4 22 Norte 35 Norte 0 1014.8 -1.5 72
2019-08-14 15:00:00 24.3 27 Norte 39 Noroeste 0 1015.1 -1.2 70
2019-08-14 14:00:00 24 27 Norte 39 Norte 0 1015.8 -0.2 71
2019-08-14 13:00:00 24.5 26 Norte 35 Norte 0 1016.3 0.6 70
2019-08-14 12:00:00 24.1 24 Norte 37 Norte 0 1016.3 1 71
2019-08-14 11:00:00 23.5 26 Norte 37 Norte 0 1016 1 72
2019-08-14 10:00:00 23.3 29 Norte 42 Norte 0 1015.7 1.1 73
2019-08-14 09:00:00 23 29 Norte 41 Norte 0 1015.3 0.7 76
2019-08-14 08:00:00 22.3 29 Norte 42 Norte 0 1015 0.4 77
2019-08-14 07:00:00 22.5 29 Norte 39 Norte 0 1014.6 -0.3 76
2019-08-14 06:00:00 22.2 33 Norte 45 Norte 0 1014.6 -0.5 75
2019-08-14 05:00:00 22.3 30 Norte 41 Norte 0 1014.6 -0.8 75
2019-08-14 04:00:00 22.4 28 Norte 48 Norte 0 1014.9 -1 75
2019-08-14 03:00:00 22.3 31 Norte 42 Norte 0 1015.1 -1.2 76
2019-08-14 02:00:00 22.4 28 Noroeste 45 Norte 0 1015.4 -0.4 75
2019-08-14 01:00:00 22.5 34 Norte 45 Norte 0 1015.9 0.1 75
2019-08-14 00:00:00 22.7 30 Norte 45 Norte 0 1016.3 0.9 78
2019-08-13 23:00:00 22.9 30 Norte 39 Norte 0 1015.8 0.9 77
2019-08-13 22:00:00 22.8 28 Norte 42 Norte 0 1015.8 0.7 77
2019-08-13 21:00:00 23 30 Norte 45 Norte 0 1015.4 0.2 77
2019-08-13 20:00:00 23.2 30 Norte 45 Norte 0 1014.9 0 77
2019-08-13 19:00:00 23.4 31 Norte 42 Norte 0 1015.1 0.1 74
2019-08-13 18:00:00 24 33 Norte 48 Norte 0 1015.2 -0.3 73
2019-08-13 17:00:00 24.2 33 Norte 48 Norte 0 1014.9 -0.9 74
2019-08-13 16:00:00 24.1 35 Norte 48 Norte 0 1015 -1 74
2019-08-13 15:00:00 24.3 31 Norte 45 Norte 0 1015.5 -0.9 72
2019-08-13 14:00:00 24.6 28 Norte 45 Norte 0 1015.8 -0.4 71
2019-08-13 13:00:00 24.5 28 Norte 42 Norte 0 1016 0.3 71
2019-08-13 12:00:00 24.2 32 Norte 46 Norte 0 1016.4 0.8 73
2019-08-13 11:00:00 24.2 34 Norte 48 Norte 0 1016.2 0.8 73
2019-08-13 10:00:00 23.4 32 Norte 42 Norte 0 1015.7 0.7 74
2019-08-13 09:00:00 23 28 Norte 41 Norte 0 1015.6 1 77
2019-08-13 08:00:00 22.7 28 Norte 46 Norte 0 1015.4 0.6 79
2019-08-13 07:00:00 22.6 31 Norte 48 Norte 0 1015 -0.2 80
2019-08-13 06:00:00 22.7 31 Norte 48 Norte 0 1014.6 -0.7 80
2019-08-13 05:00:00 22.7 34 Norte 46 Norte 0 1014.8 -1.2 80
2019-08-13 04:00:00 22.7 31 Norte 45 Norte 0 1015.2 -1.2 80
2019-08-13 03:00:00 22.7 30 Norte 42 Norte 0 1015.3 -1.3 80
2019-08-13 02:00:00 22.8 31 Norte 45 Norte 0 1016 -0.3 79
2019-08-13 01:00:00 22.9 28 Norte 41 Norte 0 1016.4 0.5 78
2019-08-13 00:00:00 23.1 24 Norte 42 Norte 0 1016.6 1.3 80
2019-08-12 23:00:00 23 28 Norte 46 Norte 0 1016.3 1.5 80
2019-08-12 22:00:00 23.2 33 Norte 46 Norte 0 1015.9 1.5 80
2019-08-12 21:00:00 23.2 29 Norte 41 Norte 0 1015.3 0.9 79
2019-08-12 20:00:00 23.3 28 Norte 42 Norte 0 1014.8 0.3 78
2019-08-12 19:00:00 23.9 28 Norte 45 Norte 0 1014.4 -0.2 76
2019-08-12 18:00:00 24.2 34 Norte 45 Norte 0 1014.4 -0.4 74
2019-08-12 17:00:00 24.5 31 Norte 46 Norte 0 1014.5 -0.8 73
2019-08-12 16:00:00 24.7 33 Norte 46 Norte 0 1014.6 -1.3 71
2019-08-12 15:00:00 24.7 34 Norte 50 Norte 0 1014.8 -1 71
2019-08-12 14:00:00 24.7 32 Norte 45 Noroeste 0 1015.3 -0.2 74
2019-08-12 13:00:00 24.9 28 Norte 45 Norte 0 1015.9 0.6 73
2019-08-12 12:00:00 24.4 28 Norte 42 Norte 0 1015.8 1 75
2019-08-12 11:00:00 23.8 30 Norte 46 Norte 0 1015.5 0.8 76
2019-08-12 10:00:00 23.8 29 Norte 46 Norte 0 1015.3 0.8 78
2019-08-12 09:00:00 23.2 32 Norte 45 Norte 0 1014.8 0.5 80
2019-08-12 08:00:00 23.1 28 Norte 46 Norte 0 1014.7 0.5 80
2019-08-12 07:00:00 23.2 27 Norte 45 Norte 0 1014.5 0 80
2019-08-12 06:00:00 23 37 Norte 46 Norte 0 1014.3 -0.5 80
2019-08-12 05:00:00 23.2 30 Norte 46 Norte 0 1014.2 -1.4 80
2019-08-12 04:00:00 23.1 29 Norte 50 Norte 0 1014.5 -1.6 79
2019-08-12 03:00:00 23.2 26 Norte 45 Norte 0 1014.8 -1.4 79
2019-08-12 02:00:00 23.2 31 Norte 42 Norte 0 1015.6 -0.5 78
2019-08-12 01:00:00 23.2 33 Norte 46 Norte 0 1016.1 0.4 79
2019-08-12 00:00:00 23.3 32 Norte 46 Norte 0 1016.2 0.8 79
2019-08-11 23:00:00 23.4 30 Norte 52 Norte 0 1016.1 1.2 79
2019-08-11 22:00:00 23.6 33 Norte 50 Norte 0 1015.7 0.9 81
2019-08-11 21:00:00 23.5 40 Norte 54 Norte 0 1015.4 0.6 79
2019-08-11 20:00:00 23.8 34 Norte 46 Norte 0 1014.9 0 79
2019-08-11 19:00:00 24 31 Norte 50 Norte 0 1014.8 -0.4 79
2019-08-11 18:00:00 24.3 33 Norte 46 Norte 0 1014.8 -0.6 81
2019-08-11 17:00:00 25.4 31 Noroeste 42 Noroeste 0 1014.9 -1.1 78
2019-08-11 16:00:00 25.8 24 Norte 41 Noroeste 0 1015.2 -1.1 76
2019-08-11 15:00:00 26.7 30 Noroeste 42 Noroeste 0 1015.4 -0.9 70
2019-08-11 14:00:00 25.5 29 Norte 45 Norte 0 1016 -0.5 79
2019-08-11 13:00:00 26.4 26 Noroeste 39 Noroeste 0 1016.3 -0.4 74
2019-08-11 12:00:00 26.3 23 Noroeste 33 Norte 0 1016.3 0.2 74
2019-08-11 11:00:00 26 20 Noroeste 33 Noroeste 0 1016.5 1.1 72
2019-08-11 10:00:00 25.1 20 Noroeste 35 Noroeste 0 1016.7 1.6 81
2019-08-11 09:00:00 24.6 22 Noroeste 41 Noroeste 0 1016.1 1 82
2019-08-11 08:00:00 24.1 26 Noroeste 42 Oeste 0 1015.4 0.3 86
2019-08-11 07:00:00 24.2 29 Noroeste 41 Noroeste 0 1015.1 -0.2 84
2019-08-11 06:00:00 24.2 26 Noroeste 39 Noroeste 0 1015.1 -0.7 82
2019-08-11 05:00:00 24.2 25 Noroeste 48 Norte 0 1015.1 -1.1 78
2019-08-11 04:00:00 24.1 26 Noroeste 39 Noroeste 0 1015.3 -0.7 79
2019-08-11 03:00:00 23.9 20 Noroeste 35 Noroeste 0 1015.8 -0.2 79
2019-08-11 02:00:00 23.9 24 Noroeste 45 Noroeste 0 1016.2 -0.1 82
2019-08-11 01:00:00 24.1 31 Noroeste 48 Noroeste 0 1016 -0.1 84
2019-08-11 00:00:00 24.6 33 Noroeste 52 Noroeste 0 1016 0.1 81
2019-08-10 23:00:00 24.4 32 Noroeste 48 Noroeste 0 1016.3 0.7 82
2019-08-10 22:00:00 24.4 30 Noroeste 46 Noroeste 0 1016.1 0.3 82
2019-08-10 21:00:00 24.7 31 Noroeste 45 Noroeste 0 1015.9 -0.2 80
2019-08-10 20:00:00 25.1 27 Noroeste 42 Noroeste 0 1015.6 -0.6 78
2019-08-10 19:00:00 26.1 22 Noroeste 37 Noroeste 0 1015.8 -0.6 74
2019-08-10 18:00:00 26.5 20 Noroeste 37 Noroeste 0 1016.1 -0.7 74
2019-08-10 17:00:00 26.6 27 Noroeste 41 Noroeste 0 1016.2 -0.8 74
2019-08-10 16:00:00 26.6 27 Noroeste 46 Noroeste 0 1016.4 -1.2 74
2019-08-10 15:00:00 27.1 23 Noroeste 52 Noroeste 0 1016.8 -0.6 70
2019-08-10 14:00:00 27.1 25 Noroeste 41 Noroeste 0 1017 0.1 67
2019-08-10 13:00:00 26.1 18 Norte 32 Norte 0 1017.6 1.4 73
2019-08-10 12:00:00 26.1 21 Noroeste 33 Noroeste 0 1017.4 1.5 74
2019-08-10 11:00:00 25.4 26 Noroeste 35 Noroeste 0 1016.9 1.3 76
2019-08-10 10:00:00 24.5 23 Noroeste 35 Noroeste 0 1016.2 0.8 80
2019-08-10 09:00:00 24 20 Noroeste 32 Noroeste 0 1015.9 0.7 82
2019-08-10 08:00:00 23.5 21 Noroeste 37 Noroeste 0 1015.6 0.3 84
2019-08-10 07:00:00 23.6 23 Noroeste 35 Noroeste 0 1015.4 0.2 82
2019-08-10 06:00:00 23.5 26 Noroeste 39 Noroeste 0 1015.2 -0.5 84
2019-08-10 05:00:00 23.5 25 Noroeste 37 Noroeste 0 1015.3 -1 84
2019-08-10 04:00:00 23.4 26 Noroeste 41 Noroeste 0 1015.2 -1.3 84
2019-08-10 03:00:00 23.4 29 Noroeste 41 Noroeste 0 1015.7 -1 84
2019-08-10 02:00:00 23.4 25 Noroeste -- -- -- 1016.3 -0.2 85
2019-08-10 01:00:00 23.4 27 Noroeste 35 Noroeste 0 1016.5 0.6 85
2019-08-10 00:00:00 23.4 22 Noroeste 32 Norte 0 1016.7 1.2 85
2019-08-09 23:00:00 23.5 21 Noroeste 32 Noroeste 0 1016.5 1.4 84
2019-08-09 22:00:00 23.5 21 Noroeste 30 Noroeste 0 1015.9 1.2 84
2019-08-09 21:00:00 23.7 21 Noroeste 30 Norte 0 1015.5 0.7 83
2019-08-09 20:00:00 23.8 24 Norte 33 Norte 0 1015.1 0 81
2019-08-09 19:00:00 24.1 24 Norte 32 Norte 0 1014.7 -0.9 83
2019-08-09 18:00:00 24.9 24 Norte 30 Norte 0 1014.8 -1 79
2019-08-09 17:00:00 25.2 21 Norte 26 Norte 0 1015.1 -0.8 77
2019-08-09 16:00:00 24.9 10 Nordeste 17 Nordeste 0 1015.6 -0.3 75
2019-08-09 15:00:00 25.1 8 Nordeste 24 Este 0 1015.8 -0.3 77
2019-08-09 14:00:00 24.8 16 Este 24 Este 0 1015.9 0.2 77
2019-08-09 13:00:00 24.3 12 Este 17 Este 0 1015.9 0.8 79
2019-08-09 12:00:00 24.5 6 Nordeste 18 Norte 0 1016.1 1.4 77
2019-08-09 11:00:00 24.3 14 Norte 24 Norte 0 1015.7 1.2 78
2019-08-09 10:00:00 23.4 21 Norte 32 Norte 0 1015.1 1.1 81
2019-08-09 09:00:00 22.9 26 Norte 33 Norte 0 1014.7 0.5 82
2019-08-09 08:00:00 22.7 23 Noroeste 35 Norte 0 1014.5 0.3 83
2019-08-09 07:00:00 22.6 22 Noroeste 30 Norte 0 1014 -0.8 82
2019-08-09 06:00:00 22.7 20 Norte 28 Norte 0 1014.2 -0.9 82
2019-08-09 05:00:00 22.9 19 Norte 26 Norte 0 1014.2 -1.1 83
2019-08-09 04:00:00 23 21 Norte 30 Norte 0 1014.8 -0.8 85
2019-08-09 03:00:00 23.1 21 Noroeste 30 Noroeste 0 1015.1 -0.5 83
2019-08-09 02:00:00 23.1 19 Norte -- -- -- 1015.3 0.2 82
2019-08-09 01:00:00 23.1 23 Norte 28 Norte 0 1015.6 1.2 83
2019-08-09 00:00:00 23.4 14 Noroeste 22 Norte 0 1015.6 1.8 81
2019-08-08 23:00:00 23.3 17 Noroeste 32 Norte 0 1015.1 1.7 82
2019-08-08 22:00:00 23.4 21 Norte 28 Noroeste 0 1014.4 1 82
2019-08-08 21:00:00 23.6 23 Norte 32 Norte 0 1013.8 0.4 79
2019-08-08 20:00:00 24.2 21 Norte 32 Norte 0 1013.4 0.1 77
2019-08-08 19:00:00 24.7 20 Noroeste 28 Norte 0 1013.4 0 74
2019-08-08 18:00:00 25.3 16 Norte 22 Norte 0 1013.4 -0.1 72
2019-08-08 17:00:00 25.9 13 Norte 18 Norte 0 1013.3 -0.4 72
2019-08-08 16:00:00 24.7 8 Este 17 Este 0 1013.4 -0.4 78
2019-08-08 15:00:00 24.8 8 Este 17 Este 0 1013.5 -0.2 78
2019-08-08 14:00:00 24.4 10 Este 15 Sudeste 0 1013.7 0.1 74
2019-08-08 13:00:00 25.9 7 Nordeste 17 Norte 0 1013.8 0.6 69
2019-08-08 12:00:00 25.6 13 Norte 21 Norte 0 1013.7 0.6 71
2019-08-08 11:00:00 24.3 17 Norte 21 Norte 0 1013.6 1 74
2019-08-08 10:00:00 24.1 13 Norte 21 Norte 0 1013.2 0.8 75
2019-08-08 09:00:00 23.4 13 Norte 22 Norte 0 1013.1 0.9 80
2019-08-08 08:00:00 22.7 19 Noroeste 32 Norte 0 1012.6 0.6 78
2019-08-08 07:00:00 22.9 24 Norte 33 Noroeste 0 1012.4 0 79
2019-08-08 06:00:00 22.7 23 Noroeste 33 Norte 0 1012.2 -0.6 79
2019-08-08 05:00:00 22.8 21 Norte 30 Norte 0 1012 -1.2 81
2019-08-08 04:00:00 22.6 15 Noroeste 24 Norte 0 1012.4 -1.4 83
2019-08-08 03:00:00 22.6 18 Norte 30 Nordeste 0 1012.8 -1.2 84
2019-08-08 02:00:00 22.9 25 Norte -- -- -- 1013.2 -0.7 82
2019-08-08 01:00:00 22.9 19 Norte 30 Norte 0 1013.8 0.6 83
2019-08-08 00:00:00 23 19 Norte 30 Norte 0 1014 1.4 83
2019-08-07 23:00:00 23 21 Norte 30 Norte 0 1013.9 1.4 82
2019-08-07 22:00:00 23.3 22 Norte 32 Noroeste 0 1013.2 0.2 81
2019-08-07 21:00:00 23.6 24 Noroeste 35 Noroeste 0 1012.6 -0.5 79
2019-08-07 20:00:00 23.8 24 Noroeste 32 Noroeste 0 1012.5 -1 78
2019-08-07 19:00:00 24.2 21 Norte 26 Norte 0 1013 -0.8 77
2019-08-07 18:00:00 25.4 14 Norte 18 Norte 0 1013.1 -0.6 73
2019-08-07 17:00:00 24.5 12 Nordeste 22 Nordeste 0 1013.5 -0.2 76
2019-08-07 16:00:00 25.9 18 Norte 30 Norte 0 1013.8 -0.1 72
2019-08-07 15:00:00 25.3 22 Norte 32 Norte 0 1013.7 -0.3 74
2019-08-07 14:00:00 25.3 23 Norte 37 Noroeste 0 1013.7 -0.1 74
2019-08-07 13:00:00 25.1 23 Norte 35 Norte 0 1013.9 -- 75
2019-08-07 12:00:00 24.4 27 Norte -- -- -- 1014 -- 77
2019-08-07 11:00:00 24.3 22 Norte -- -- -- 1013.8 -- 77
2019-08-07 10:00:00 -- -- -- -- -- -- -- -- --
2019-08-07 09:00:00 -- -- -- -- -- -- -- -- --
2019-08-07 08:00:00 -- -- -- -- -- -- -- -- --
2019-08-07 07:00:00 -- -- -- -- -- -- -- -- --
2019-08-07 06:00:00 -- -- -- -- -- -- -- -- --
2019-08-07 05:00:00 -- -- -- -- -- -- -- -- --
2019-08-07 04:00:00 -- -- -- -- -- -- -- -- --
2019-08-07 03:00:00 -- -- -- -- -- -- -- -- --
2019-08-07 02:00:00 -- -- -- -- -- -- -- -- --
2019-08-07 01:00:00 -- -- -- -- -- -- -- -- --
2019-08-07 00:00:00 -- -- -- -- -- -- -- -- --
2019-08-06 23:00:00 -- -- -- -- -- -- -- -- --
2019-08-06 22:00:00 -- -- -- -- -- -- -- -- --
2019-08-06 21:00:00 -- -- -- -- -- -- -- -- --
2019-08-06 20:00:00 -- -- -- -- -- -- -- -- --
2019-08-06 19:00:00 -- -- -- -- -- -- -- -- --
2019-08-06 18:00:00 -- -- -- -- -- -- -- -- --
2019-08-06 17:00:00 -- -- -- -- -- -- -- -- --
2019-08-06 16:00:00 25.6 31 Noroeste 48 Noroeste 0 1013.5 -1.6 69
2019-08-06 15:00:00 25.6 31 Noroeste 39 Norte 0 1014.2 -1 71
2019-08-06 14:00:00 25.6 22 Noroeste 35 Noroeste 0 1014.8 -0.1 70
2019-08-06 13:00:00 25.4 18 Norte 30 Norte 0 1015.1 0.4 70
2019-08-06 12:00:00 25 19 Noroeste 32 Noroeste 0 1015.2 0.6 71
2019-08-06 11:00:00 24.1 22 Norte 33 Noroeste 0 1014.9 0.4 75
2019-08-06 10:00:00 23.9 23 Noroeste 32 Noroeste 0 1014.7 0.3 75
2019-08-06 09:00:00 23.2 23 Norte 32 Noroeste 0 1014.6 0.3 78
2019-08-06 08:00:00 22.5 19 Noroeste 30 Norte 0 1014.5 0.3 80
2019-08-06 07:00:00 22.5 21 Noroeste 39 Noroeste 0 1014.4 -0.3 82
2019-08-06 06:00:00 22.4 22 Noroeste 33 Noroeste 0 1014.3 -0.6 81
2019-08-06 05:00:00 22.6 23 Noroeste 35 Norte 0 1014.2 -1.1 82
2019-08-06 04:00:00 22.7 23 Norte 39 Norte 0 1014.7 -0.8 82
2019-08-06 03:00:00 22.8 26 Norte 37 Norte 0 1014.9 -0.8 82
2019-08-06 02:00:00 22.8 22 Noroeste 39 Noroeste 0 1015.3 -0.5 79
2019-08-06 01:00:00 23 24 Noroeste 42 Noroeste 0 1015.5 0.6 78
2019-08-06 00:00:00 22.9 24 Noroeste 37 Noroeste 0 1015.7 1.3 82
2019-08-05 23:00:00 23.1 23 Noroeste 35 Noroeste 0 1015.8 1.4 82
2019-08-05 22:00:00 23.2 23 Noroeste 45 Noroeste 0 1014.9 0.5 76
2019-08-05 21:00:00 23.2 28 Noroeste 39 Noroeste 0 1014.4 -0.1 77
2019-08-05 20:00:00 23.3 24 Noroeste 39 Norte 0 1014.4 -0.4 80
2019-08-05 19:00:00 23.8 26 Norte 33 Norte 0 1014.4 -0.4 78
2019-08-05 18:00:00 23.8 26 Norte 32 Norte 0 1014.5 -0.6 78
2019-08-05 17:00:00 24.4 19 Norte 32 Norte 0 1014.8 -0.6 77
2019-08-05 16:00:00 24.4 24 Norte 37 Norte 0 1014.8 -0.8 78
2019-08-05 15:00:00 25.1 22 Norte 32 Norte 0 1015.1 -0.6 74
2019-08-05 14:00:00 25.3 16 Norte 30 Norte 0 1015.4 -0.4 75
2019-08-05 13:00:00 24.6 24 Norte 33 Norte 0 1015.6 0 78
2019-08-05 12:00:00 25.2 24 Noroeste 35 Norte 0 1015.7 0.4 74
2019-08-05 11:00:00 24.1 23 Noroeste 39 Norte 0 1015.8 0.8 81
2019-08-05 10:00:00 23.5 28 Noroeste 39 Norte 0 1015.6 0.6 82
2019-08-05 09:00:00 23.4 24 Noroeste 37 Norte 0 1015.3 0.3 81
2019-08-05 08:00:00 23 25 Noroeste 35 Noroeste 0 1015 0 78
2019-08-05 07:00:00 22.3 23 Noroeste 33 Noroeste 0 1015 -0.4 82
2019-08-05 06:00:00 22.5 24 Noroeste 35 Noroeste 0 1015 -0.9 86
2019-08-05 05:00:00 22.6 22 Noroeste 32 Noroeste 0 1015 -1 83
2019-08-05 04:00:00 22.6 21 Noroeste 32 Norte 0 1015.4 -0.8 85
2019-08-05 03:00:00 22.7 21 Norte 33 Norte 0 1015.9 -0.4 85
2019-08-05 02:00:00 22.5 24 Norte 39 Norte 0 1016 -0.1 83
2019-08-05 01:00:00 22.6 23 Noroeste 33 Norte 0 1016.2 0.4 83
2019-08-05 00:00:00 22.9 23 Noroeste 37 Norte 0 1016.3 0.9 83
2019-08-04 23:00:00 23 19 Noroeste 33 Norte 0 1016.1 1.3 83
2019-08-04 22:00:00 23 20 Norte 35 Norte 0 1015.8 1.2 83
2019-08-04 21:00:00 23.3 24 Norte 37 Norte 0 1015.4 0.7 82
2019-08-04 20:00:00 23.9 27 Noroeste 42 Noroeste 0 1014.8 0.2 72
2019-08-04 19:00:00 24.9 29 Noroeste 39 Norte 0 1014.6 -0.2 68
2019-08-04 18:00:00 24.9 26 Noroeste 42 Norte 0 1014.7 -0.7 67
2019-08-04 17:00:00 25.8 27 Noroeste 45 Noroeste 0 1014.6 -1.3 59
2019-08-04 16:00:00 25.9 23 Noroeste 41 Noroeste 0 1014.8 -1.5 59
2019-08-04 15:00:00 24.7 25 Norte 33 Norte 0 1015.4 -1.1 69
2019-08-04 14:00:00 24.8 24 Norte 30 Norte 0 1015.9 -0.4 70
2019-08-04 13:00:00 25.1 17 Norte 30 Norte 0 1016.3 0.3 67
2019-08-04 12:00:00 25.3 15 Noroeste 33 Noroeste 0 1016.5 1 63
2019-08-04 11:00:00 24.2 17 Noroeste 32 Norte 0 1016.3 1 68
2019-08-04 10:00:00 23.1 19 Norte 32 Norte 0 1016 0.8 79
2019-08-04 09:00:00 23 25 Norte 41 Norte 0 1015.5 0.3 81
2019-08-04 08:00:00 22.1 21 Norte 28 Norte 0 1015.3 0.2 83
2019-08-04 07:00:00 22 18 Norte 26 Norte 0 1015.2 0.3 81
2019-08-04 06:00:00 22 19 Norte 35 Norte 0 1015.2 0 81
2019-08-04 05:00:00 22 24 Norte 37 Norte 0 1015.1 -0.6 81
2019-08-04 04:00:00 22.2 27 Norte 39 Norte 0 1014.9 -1.6 82
2019-08-04 03:00:00 22.4 23 Norte 37 Noroeste 0 1015.2 -1.3 81
2019-08-04 02:00:00 22.1 16 Noroeste 28 Norte 0 1015.7 -0.2 81
2019-08-04 01:00:00 22.3 21 Norte 37 Norte 0 1016.5 1 80
2019-08-04 00:00:00 22.5 27 Norte 41 Norte 0 1016.5 1.3 78
2019-08-03 23:00:00 22.4 30 Norte 45 Norte 0 1015.9 1.1 77
2019-08-03 22:00:00 22.4 31 Norte 41 Norte 0 1015.5 0.8 78
2019-08-03 21:00:00 22.6 26 Norte 39 Norte 0 1015.2 0.3 76
2019-08-03 20:00:00 23.4 28 Noroeste 45 Noroeste 0 1014.8 -0.5 72
2019-08-03 19:00:00 23.9 27 Noroeste 42 Noroeste 0 1014.7 -1.1 72
2019-08-03 18:00:00 23.9 29 Norte 41 Norte 0 1014.9 -1.4 71
2019-08-03 17:00:00 23.9 27 Norte 41 Norte 0 1015.3 -1.3 72
2019-08-03 16:00:00 24.1 30 Norte 41 Norte 0 1015.8 -1 72
2019-08-03 15:00:00 24.2 32 Norte 41 Norte 0 1016.3 -0.5 68
2019-08-03 14:00:00 24.1 33 Norte 42 Norte 0 1016.6 0.1 69
2019-08-03 13:00:00 24.2 27 Norte 39 Noroeste 0 1016.8 0.8 69
2019-08-03 12:00:00 24 26 Norte 35 Norte 0 1016.8 1.1 68
2019-08-03 11:00:00 23.7 22 Noroeste 33 Norte 0 1016.5 1.1 72
2019-08-03 10:00:00 23 23 Noroeste 39 Norte 0 1016 0.9 75
2019-08-03 09:00:00 22.4 27 Noroeste 37 Noroeste 0 1015.7 0.8 76
2019-08-03 08:00:00 22.1 24 Noroeste 33 Noroeste 0 1015.4 0.5 78
2019-08-03 07:00:00 21.9 23 Norte 32 Norte 0 1015.1 -0.1 82
2019-08-03 06:00:00 22.3 23 Norte 32 Norte 0 1014.9 -0.5 83
2019-08-03 05:00:00 22.3 22 Norte 33 Norte 0 1014.9 -0.9 81
2019-08-03 04:00:00 22.3 25 Norte 37 Norte 0 1015.2 -0.7 77
2019-08-03 03:00:00 22.3 26 Norte 37 Norte 0 1015.4 -0.8 80
2019-08-03 02:00:00 22.3 22 Noroeste 33 Norte 0 1015.8 -0.2 77
2019-08-03 01:00:00 22.5 21 Noroeste 33 Norte 0 1015.9 0.5 75
2019-08-03 00:00:00 22.6 24 Norte 35 Norte 0 1016.2 1.1 80
2019-08-02 23:00:00 22.5 26 Norte 41 Noroeste 0 1016 1 79
2019-08-02 22:00:00 22.7 28 Noroeste 39 Norte 0 1015.4 0.2 78
2019-08-02 21:00:00 23 27 Noroeste 41 Norte 0 1015.1 -0.2 73
2019-08-02 20:00:00 23 30 Noroeste 39 Norte 0 1015 -0.3 76
2019-08-02 19:00:00 23.7 26 Norte 37 Norte 0 1015.2 -0.6 75
2019-08-02 18:00:00 24.2 26 Norte 37 Norte 0 1015.3 -0.9 72
2019-08-02 17:00:00 24.8 26 Noroeste 35 Norte 0 1015.3 -1.3 65
2019-08-02 16:00:00 24.8 23 Norte 30 Norte 0 1015.8 -1.1 63
2019-08-02 15:00:00 25.4 20 Norte 30 Norte 0 1016.2 -0.6 67
2019-08-02 14:00:00 25.3 17 Norte 30 Norte 0 1016.6 0.1 61
2019-08-02 13:00:00 24.8 23 Norte 32 Norte 0 1016.9 0.9 66
2019-08-02 12:00:00 24.2 21 Norte 30 Norte 0 1016.8 0.8 66
2019-08-02 11:00:00 23.2 24 Norte 35 Noroeste 0 1016.5 0.9 74
2019-08-02 10:00:00 23.2 22 Norte 30 Norte 0 1016 0.8 71
2019-08-02 09:00:00 22.6 16 Norte 26 Norte 0 1016 1.1 69
2019-08-02 08:00:00 22.1 18 Nordeste 39 Nordeste 0 1015.6 0.8 74
2019-08-02 07:00:00 22 33 Nordeste 41 Nordeste 0 1015.2 0.3 74
2019-08-02 06:00:00 21.9 35 Norte 42 Nordeste 0 1014.9 -0.7 74
2019-08-02 05:00:00 22.2 30 Norte 45 Norte 0 1014.8 -0.9 73
2019-08-02 04:00:00 22.1 28 Noroeste 39 Noroeste 0 1014.9 -0.9 74
2019-08-02 03:00:00 22.4 26 Norte 35 Norte 0 1015.6 -0.3 76
2019-08-02 02:00:00 22.1 19 Norte 35 Norte 0 1015.7 0.1 75
2019-08-02 01:00:00 22.2 27 Norte 41 Norte 0 1015.8 0.7 80
2019-08-02 00:00:00 22.3 28 Norte 46 Norte 0 1015.9 1 77
2019-08-01 23:00:00 22.3 29 Norte 45 Norte 0 1015.6 1 81
2019-08-01 22:00:00 22.3 28 Norte 41 Norte 0 1015.1 0.6 79
2019-08-01 21:00:00 22.5 28 Norte 37 Norte 0 1014.9 0.3 81
2019-08-01 20:00:00 23 25 Norte 33 Norte 0 1014.6 -0.1 79
2019-08-01 19:00:00 24 22 Norte 35 Norte 0 1014.5 -0.6 73
2019-08-01 18:00:00 24.1 25 Norte 33 Norte 0 1014.6 -0.7 70
2019-08-01 17:00:00 24.9 22 Norte 26 Norte 0 1014.7 -0.6 66
2019-08-01 16:00:00 24.9 13 Norte 26 Norte 0 1015.1 -0.5 68
2019-08-01 15:00:00 24.4 19 Norte 35 Noroeste 0 1015.3 -0.4 70
2019-08-01 14:00:00 25 26 Noroeste 37 Norte 0 1015.3 -0.2 63
2019-08-01 13:00:00 24.5 25 Norte 35 Norte 0 1015.6 0.4 64
2019-08-01 12:00:00 24.2 22 Norte 30 Noroeste 0 1015.7 0.9 65
2019-08-01 11:00:00 23.8 23 Norte 32 Norte 0 1015.5 1.2 68
2019-08-01 10:00:00 23.6 13 Norte 32 Norte 0 1015.2 1.4 68
2019-08-01 09:00:00 22.6 24 Norte 33 Norte 0 1014.8 1.1 68
2019-08-01 08:00:00 21.9 25 Norte 41 Norte 0 1014.3 0.8 73
2019-08-01 07:00:00 21.9 32 Norte 45 Norte 0 1013.8 -0.2 72
2019-08-01 06:00:00 21.6 29 Norte 42 Norte 0 1013.7 -0.5 78
2019-08-01 05:00:00 21.7 34 Noroeste 45 Noroeste 0 1013.5 -1.1 75
2019-08-01 04:00:00 21.9 31 Noroeste 42 Noroeste 0 1014 -1.1 77
2019-08-01 03:00:00 21.8 31 Norte 41 Norte 0 1014.2 -0.8 75
2019-08-01 02:00:00 22 23 Norte 37 Noroeste 0 1014.6 -0.2 77
2019-08-01 01:00:00 21.8 30 Noroeste 42 Noroeste 0 1015.1 1 74
2019-08-01 00:00:00 22 31 Noroeste -- -- 0 1015 1.1 78
2019-07-31 23:00:00 21.9 -- -- -- -- 0 1014.8 1.2 77
2019-07-31 22:00:00 21.9 -- -- -- -- 0 1014.1 0.7 78
2019-07-31 21:00:00 22.2 -- -- -- -- 0 1013.9 0.1 78
2019-07-31 20:00:00 22.4 -- -- -- -- 0 1013.6 -0.3 77
2019-07-31 19:00:00 23 -- -- 39 Norte 0 1013.4 -0.6 74
2019-07-31 18:00:00 23.6 31 Norte 42 Norte 0 1013.8 -0.9 71
2019-07-31 17:00:00 24.1 32 Norte 42 Norte 0 1013.9 -1.5 66
2019-07-31 16:00:00 24 28 Noroeste 39 Norte 0 1014 -1.5 63
2019-07-31 15:00:00 24.8 27 Norte 35 Norte 0 1014.7 -0.7 62
2019-07-31 14:00:00 24.7 28 Norte 42 Norte 0 1015.4 0.3 63
2019-07-31 13:00:00 24.3 32 Norte 41 Norte 0 1015.5 0.7 67
2019-07-31 12:00:00 24.1 29 Norte 41 Noroeste 0 1015.4 1 67
2019-07-31 11:00:00 23.4 30 Noroeste 45 Norte 0 1015.1 1 64
2019-07-31 10:00:00 23.3 33 Norte 45 Norte 0 1014.8 1.3 66
2019-07-31 09:00:00 22.5 26 Norte 39 Norte 0 1014.4 1 67
2019-07-31 08:00:00 22 32 Norte 48 Norte 0 1014.1 0.8 71
2019-07-31 07:00:00 21.9 39 Norte 46 Norte 0 1013.5 -0.2 77
2019-07-31 06:00:00 21.8 32 Norte 48 Norte 0 1013.4 -0.7 71
2019-07-31 05:00:00 21.8 38 Norte 54 Norte 0 1013.3 -1.8 75
2019-07-31 04:00:00 21.8 34 Norte 46 Norte 0 1013.7 -2.1 77
2019-07-31 03:00:00 22.1 32 Norte 50 Norte 0 1014.1 -2 78
2019-07-31 02:00:00 22.2 36 Norte 48 Norte 0 1015.1 -0.8 79
2019-07-31 01:00:00 22 27 Norte 41 Norte 0 1015.8 0.5 75
2019-07-31 00:00:00 22.2 30 Norte 54 Norte 0 1016.1 1.2 74
2019-07-30 23:00:00 22.3 40 Norte 50 Norte 0 1015.9 1.3 76
2019-07-30 22:00:00 22.3 29 Norte 42 Norte 0 1015.3 0.9 77
2019-07-30 21:00:00 22.6 32 Norte 50 Norte 0 1014.9 0.4 74
2019-07-30 20:00:00 22.6 35 Norte 45 Norte 0 1014.6 0 75
2019-07-30 19:00:00 22.5 30 Norte 45 Norte 0 1014.4 -0.7 79
2019-07-30 18:00:00 22.9 38 Norte 52 Norte 0 1014.5 -1.1 78
2019-07-30 17:00:00 23.5 39 Norte 46 Norte 0 1014.6 -1.5 79
2019-07-30 16:00:00 24.1 26 Noroeste 41 Norte 0 1015.1 -1.1 69
2019-07-30 15:00:00 24.5 30 Norte 46 Norte 0 1015.6 -0.6 71
2019-07-30 14:00:00 24.3 33 Norte 45 Norte 0 1016.1 -0.6 74
2019-07-30 13:00:00 23.9 29 Noroeste 48 Norte 0 1016.2 0.1 73
2019-07-30 12:00:00 24.2 37 Norte 48 Norte 0 1016.2 0.6 76
2019-07-30 11:00:00 24 28 Norte 39 Norte 0 1016.7 1.5 79
2019-07-30 10:00:00 23.2 24 Noroeste 42 Norte 0 1016.1 1.6 78
2019-07-30 09:00:00 22.9 27 Norte 37 Noroeste 0 1015.6 1.2 85
2019-07-30 08:00:00 22.7 26 Norte 41 Norte 0 1015.2 0.2 87
2019-07-30 07:00:00 22.7 26 Noroeste 45 Noroeste 0 1014.5 -0.3 83
2019-07-30 06:00:00 22.9 29 Oeste 42 Noroeste 0 1014.4 -0.9 81
2019-07-30 05:00:00 22.6 23 Noroeste 33 Noroeste 0 1015 -1.1 85
2019-07-30 04:00:00 22.5 22 Noroeste 39 Noroeste 0 1014.8 -1.8 82
2019-07-30 03:00:00 22.5 24 Noroeste 35 Noroeste 0 1015.3 -0.8 83
2019-07-30 02:00:00 22.6 18 Noroeste 35 Norte 0 1016.1 0.3 85
2019-07-30 01:00:00 22.6 22 Noroeste 35 Noroeste 0 1016.6 1.3 85
2019-07-30 00:00:00 22.9 24 Noroeste 39 Noroeste 0 1016.1 1.2 82
2019-07-29 23:00:00 23 24 Noroeste 39 Noroeste 0 1015.8 1 81
2019-07-29 22:00:00 22.8 26 Noroeste 37 Noroeste 0 1015.3 0.6 82
2019-07-29 21:00:00 23 21 Noroeste 30 Noroeste 0 1014.9 0.3 77
2019-07-29 20:00:00 23.4 20 Noroeste 37 Noroeste 0 1014.8 0.3 74
2019-07-29 19:00:00 23.7 30 Noroeste 41 Norte 0 1014.7 -0.2 75
2019-07-29 18:00:00 24.1 29 Noroeste 45 Norte 0 1014.6 -0.7 71
2019-07-29 17:00:00 24.6 24 Noroeste 39 Noroeste 0 1014.5 -0.5 69
2019-07-29 16:00:00 24.4 24 Norte 35 Norte 0 1014.9 -0.4 71
2019-07-29 15:00:00 24.5 27 Norte 41 Noroeste 0 1015.3 -0.1 68
2019-07-29 14:00:00 24.1 26 Noroeste 35 Noroeste 0 1015 0.1 70
2019-07-29 13:00:00 24.6 24 Norte 35 Noroeste 0 1015.3 1.1 66
2019-07-29 12:00:00 24.6 22 Norte 37 Norte 0 1015.4 1.6 68
2019-07-29 11:00:00 23.7 24 Norte 41 Norte 0 1014.9 1.2 69
2019-07-29 10:00:00 22.9 29 Norte 42 Norte 0 1014.2 1.1 74
2019-07-29 09:00:00 22.9 30 Norte 42 Norte 0 1013.8 0.7 73
2019-07-29 08:00:00 22.6 30 Norte 41 Norte 0 1013.7 0.6 73
2019-07-29 07:00:00 22.3 19 Noroeste 32 Norte 0 1013.1 -0.2 73
2019-07-29 06:00:00 22.1 26 Noroeste 37 Norte 0 1013.1 -0.4 78
2019-07-29 05:00:00 22.2 27 Noroeste 37 Norte 0 1013.1 -0.4 80
2019-07-29 04:00:00 22.4 23 Norte 35 Norte 0 1013.3 -0.6 81
2019-07-29 03:00:00 22.6 24 Noroeste 42 Noroeste 0 1013.5 -0.7 74
2019-07-29 02:00:00 22.8 27 Noroeste 39 Noroeste 0 1013.5 -0.4 74
2019-07-29 01:00:00 22.6 25 Noroeste 37 Norte 0 1013.9 0.7 77
2019-07-29 00:00:00 22.8 29 Norte 42 Norte 0 1014.2 1.6 78
2019-07-28 23:00:00 22.9 29 Norte 42 Norte 0 1013.9 1.3 79
2019-07-28 22:00:00 22.9 32 Norte 50 Norte 0 1013.2 1.2 81
2019-07-28 21:00:00 23.2 34 Norte 45 Norte 0 1012.6 1.2 83
2019-07-28 20:00:00 23.5 25 Noroeste 37 Noroeste 0 1012.6 1.1 82
2019-07-28 19:00:00 23.4 24 Noroeste 48 Noroeste 0 1012 0.2 84
2019-07-28 18:00:00 24.5 32 Noroeste 50 Noroeste 0 1011.4 -1.1 76
2019-07-28 17:00:00 25.3 32 Noroeste 48 Noroeste 0 1011.5 -1.2 73
2019-07-28 16:00:00 24.9 32 Noroeste 46 Noroeste 0 1011.8 -1.1 75
2019-07-28 15:00:00 24.6 25 Noroeste 42 Noroeste 0 1012.5 -1 78
2019-07-28 14:00:00 25 27 Noroeste 41 Noroeste 0 1012.7 -0.5 73
2019-07-28 13:00:00 24.3 28 Noroeste 42 Oeste 0 1012.9 -0.2 76
2019-07-28 12:00:00 23.5 24 Noroeste 41 Norte 0 1013.5 0.4 81
2019-07-28 11:00:00 24.2 24 Noroeste 37 Noroeste 0 1013.2 0.4 71
2019-07-28 10:00:00 23.1 21 Noroeste 37 Norte 0 1013.1 0.9 75
2019-07-28 09:00:00 23.1 25 Norte 45 Norte 0 1013.1 1.2 77
2019-07-28 08:00:00 22.5 31 Norte 46 Norte 0 1012.8 0.3 80
2019-07-28 07:00:00 22.3 31 Norte 46 Noroeste 0 1012.2 -0.5 81
2019-07-28 06:00:00 22.3 28 Norte 48 Norte 0 1011.9 -1.3 81
2019-07-28 05:00:00 22.1 34 Norte 46 Norte 0 1012.5 -1.5 82
2019-07-28 04:00:00 22.3 28 Norte 42 Norte 0 1012.7 -1.8 81
2019-07-28 03:00:00 22 27 Norte 46 Noroeste 0 1013.2 -1.6 77
2019-07-28 02:00:00 21.9 32 Noroeste 45 Norte 0 1014 -0.7 77
2019-07-28 01:00:00 22.2 29 Norte 39 Norte 0 1014.5 0.4 82
2019-07-28 00:00:00 22.1 24 Norte 41 Norte 0 1014.8 1.1 81
2019-07-27 23:00:00 22.1 27 Norte 45 Norte 0 1014.7 0.9 80
2019-07-27 22:00:00 22.3 31 Noroeste 45 Noroeste 0 1014.1 0.2 76
2019-07-26 11:00:00 23.7 28 Noroeste 45 Noroeste 0 1015 1 78
2019-07-26 10:00:00 23.6 28 Noroeste 46 Noroeste 0 1014.9 1.3 79
2019-07-26 09:00:00 23 27 Noroeste 41 Noroeste 0 1014.4 1 84
2019-07-26 08:00:00 22.7 28 Noroeste 48 Noroeste 0 1014 0.5 81
2019-07-26 07:00:00 22.7 30 Noroeste 45 Noroeste 0 1013.6 -0.1 82
2019-07-26 06:00:00 22.7 29 Noroeste 45 Noroeste 0 1013.4 0.1 84
2019-07-26 05:00:00 22.7 26 Noroeste 41 Noroeste 0 1013.5 -0.7 85
2019-07-26 04:00:00 22.8 23 Noroeste 50 Noroeste 0 1013.7 -1 85
2019-07-26 03:00:00 23 33 Noroeste 52 Noroeste 0 1013.3 -1.2 79
2019-07-26 02:00:00 23 36 Noroeste 54 Noroeste 0 1014.2 -0.1 79
2019-07-26 01:00:00 22.8 31 Noroeste 52 Noroeste 0 1014.7 1 79
2019-07-26 00:00:00 22.9 34 Noroeste 54 Noroeste 0 1014.5 1.3 81
2019-07-25 23:00:00 22.9 34 Noroeste 54 Noroeste 0 1014.3 1.7 81
2019-07-25 22:00:00 22.8 34 Noroeste 50 Noroeste 0 1013.7 1.2 81
2019-07-25 21:00:00 22.9 35 Noroeste 54 Noroeste 0 1013.2 0.3 81
2019-07-25 20:00:00 23.5 40 Noroeste 54 Noroeste 0 1012.6 -0.2 78
2019-07-25 19:00:00 24.3 39 Noroeste 48 Noroeste 0 1012.5 -0.4 75
2019-07-25 18:00:00 24.5 30 Noroeste 42 Noroeste 0 1012.9 -0.5 74
2019-07-25 17:00:00 24.7 33 Noroeste 48 Noroeste 0 1012.8 -0.8 72
2019-07-25 16:00:00 24.6 33 Noroeste 48 Noroeste 0 1012.9 -0.6 73
2019-07-25 15:00:00 24.5 32 Noroeste 46 Noroeste 0 1013.4 0.1 73
2019-07-25 14:00:00 24 30 Noroeste 45 Noroeste 0 1013.6 0.2 76
2019-07-25 13:00:00 24 31 Noroeste 46 Norte 0 1013.5 0.4 75
2019-07-25 12:00:00 23.8 32 Noroeste 45 Noroeste 0 1013.3 0.4 76
2019-07-25 11:00:00 23 31 Noroeste 41 Noroeste 0 1013.4 1.2 80
2019-07-25 10:00:00 22.6 28 Noroeste 42 Noroeste 0 1013.1 1.1 81
2019-07-25 09:00:00 21.9 30 Noroeste 46 Noroeste 0 1012.9 0.8 83
2019-07-25 08:00:00 21.4 29 Noroeste 42 Noroeste 0 1012.2 0.1 85
2019-07-25 07:00:00 21.3 26 Noroeste 35 Noroeste 0 1012 -0.2 86
2019-07-25 06:00:00 21.5 23 Norte 33 Noroeste 0 1012.1 0 85
2019-07-25 05:00:00 21.6 26 Noroeste 39 Noroeste 0 1012.1 -0.9 84
2019-07-25 04:00:00 21.7 31 Noroeste 48 Noroeste 0 1012.2 -1.2 84
2019-07-25 03:00:00 21.7 33 Noroeste 45 Noroeste 0 1012.1 -1.1 84
2019-07-25 02:00:00 21.8 26 Noroeste 37 Noroeste 0 1013 0.3 85
2019-07-25 01:00:00 21.8 26 Noroeste 41 Noroeste 0 1013.4 0.9 82
2019-07-25 00:00:00 22.1 34 Noroeste 50 Noroeste 0 1013.2 1 82
2019-07-24 23:00:00 22.2 37 Noroeste 48 Noroeste 0 1012.7 0.9 80
2019-07-24 22:00:00 22.4 34 Noroeste 46 Noroeste 0 1012.5 1 81
2019-07-24 21:00:00 22.7 35 Noroeste 48 Noroeste 0 1012.2 0.4 82
2019-07-24 20:00:00 23.3 33 Noroeste 52 Noroeste 0 1011.8 -0.5 76
2019-07-24 19:00:00 23.8 35 Noroeste 54 Norte 0 1011.5 -1.3 73
2019-07-24 18:00:00 24.3 38 Noroeste 54 Noroeste 0 1011.8 -1.2 71
2019-07-24 17:00:00 24.4 31 Noroeste 45 Noroeste 0 1012.3 -1.1 72
2019-07-24 16:00:00 24.1 27 Noroeste 37 Noroeste 0 1012.8 -0.8 72
2019-07-24 15:00:00 24.1 26 Noroeste 37 Norte 0 1013 -0.9 71
2019-07-24 14:00:00 24 26 Norte 39 Noroeste 0 1013.4 0 71
2019-07-24 13:00:00 23.5 27 Norte 39 Norte 0 1013.6 0.8 74
2019-07-24 12:00:00 23.3 28 Norte 42 Norte 0 1013.9 1.2 74
2019-07-24 11:00:00 22.9 27 Norte 41 Norte 0 1013.4 0.5 76
2019-07-24 10:00:00 22.4 26 Norte 35 Noroeste 0 1012.8 0.3 77
2019-07-24 09:00:00 22.2 23 Noroeste 32 Norte 0 1012.7 0.6 77
2019-07-24 08:00:00 21.9 19 Norte 42 Norte 0 1012.9 0.8 81
2019-07-24 07:00:00 21.9 32 Norte 45 Norte 0 1012.5 -0.4 80
2019-07-24 06:00:00 21.8 31 Norte 48 Norte 0 1012.1 -1.4 79
2019-07-24 05:00:00 22 33 Noroeste 46 Norte 0 1012.1 -1.9 76
2019-07-24 04:00:00 21.9 33 Noroeste 46 Norte 0 1012.9 -1.2 76
2019-07-24 03:00:00 22.1 29 Norte 50 Noroeste 0 1013.5 -1.5 78
2019-07-24 02:00:00 22.2 26 Noroeste 48 Norte 0 1014 -0.7 76
2019-07-24 01:00:00 22.3 34 Noroeste 48 Norte 0 1014.1 -0.1 77
2019-07-24 00:00:00 22.3 27 Noroeste 50 Norte 0 1015 0.6 76
2019-07-23 23:00:00 22.2 32 Noroeste 48 Noroeste 0 1014.7 0.7 76
2019-07-23 22:00:00 22.3 35 Noroeste 52 Noroeste 0 1014.2 0.9 72
2019-07-23 21:00:00 22.5 35 Norte 48 Norte 0 1014.4 0.6 76
2019-07-23 20:00:00 22.8 29 Norte 46 Noroeste 0 1014 -0.4 75
2019-07-23 19:00:00 23.2 35 Noroeste 50 Noroeste 0 1013.3 -1.2 70
2019-07-23 18:00:00 23 35 Noroeste 41 Noroeste 0 1013.8 -0.8 73
2019-07-23 17:00:00 23.7 28 Norte 46 Norte 0 1014.4 -0.8 70
2019-07-23 16:00:00 23.7 32 Norte 48 Noroeste 0 1014.5 -1 69
2019-07-23 15:00:00 23.6 34 Norte 46 Norte 0 1014.6 -0.7 68
2019-07-23 14:00:00 24 33 Norte 42 Norte 0 1015.2 0.3 68
2019-07-23 13:00:00 24.1 33 Norte 42 Norte 0 1015.5 0.6 67
2019-07-23 12:00:00 23.9 31 Norte 45 Norte 0 1015.3 0.6 68
2019-07-23 11:00:00 23.1 30 Noroeste 46 Norte 0 1014.9 0.4 70
2019-07-23 10:00:00 22.2 36 Norte 48 Noroeste 0 1014.9 0.2 71
2019-07-23 09:00:00 21.9 40 Norte 48 Norte 0 1014.7 0.2 74
2019-07-23 08:00:00 21.5 30 Norte 46 Norte 0 1014.5 0.5 73
2019-07-23 07:00:00 21.4 37 Norte 52 Norte 0 1014.7 0.4 75
2019-07-23 06:00:00 21.6 36 Norte 50 Norte 0 1014.5 -0.6 75
2019-07-23 05:00:00 21.4 32 Noroeste 48 Norte 0 1014 -1.3 73
2019-07-23 04:00:00 21.9 39 Norte 52 Norte 0 1014.3 -1.4 75
2019-07-23 03:00:00 21.8 44 Norte 55 Norte 0 1015.1 -1.4 74
2019-07-23 02:00:00 21.8 35 Norte 52 Norte 0 1015.3 -0.7 73
2019-07-23 01:00:00 21.9 35 Noroeste 52 Noroeste 0 1015.7 0.1 71
2019-07-23 00:00:00 22 37 Norte 52 Norte 0 1016.5 1.2 74
2019-07-22 23:00:00 21.9 33 Norte 50 Norte 0 1016 0.7 75
2019-07-22 22:00:00 21.8 36 Norte 46 Norte 0 1015.6 0.7 76
2019-07-22 21:00:00 22.1 35 Norte 45 Norte 0 1015.3 0.7 77
2019-07-22 20:00:00 22.7 32 Norte 41 Norte 0 1015.3 0.5 76
2019-07-22 19:00:00 22.8 31 Norte 46 Norte 0 1014.9 -0.3 71
2019-07-22 18:00:00 23.4 35 Noroeste 50 Noroeste 0 1014.6 -1.5 68
2019-07-22 17:00:00 23.3 39 Noroeste 50 Norte 0 1014.8 -1.8 70
2019-07-22 16:00:00 23.6 32 Norte 46 Norte 0 1015.2 -1.4 71
2019-07-22 15:00:00 24.1 27 Norte 41 Noroeste 0 1016.1 -0.7 67
2019-07-22 14:00:00 23.5 32 Norte 45 Noroeste 0 1016.6 0.1 68
2019-07-22 13:00:00 23.3 36 Noroeste 45 Norte 0 1016.6 0.4 68
2019-07-22 12:00:00 23.4 30 Norte 39 Norte 0 1016.8 0.5 69
2019-07-22 11:00:00 22.8 27 Norte 45 Norte 0 1016.5 0.5 70
2019-07-22 10:00:00 22.2 36 Norte 46 Norte 0 1016.2 0.4 74
2019-07-22 09:00:00 21.8 38 Norte 46 Norte 0 1016.3 0.4 76
2019-07-22 08:00:00 21.7 30 Norte 42 Norte 0 1016 -0.1 77
2019-07-22 07:00:00 21.5 32 Norte 45 Norte 0 1015.8 -0.3 77
2019-07-22 06:00:00 21.6 27 Norte 46 Norte 0 1015.9 -0.4 77
2019-07-22 05:00:00 21.9 32 Norte 48 Norte 0 1016.1 -1 79
2019-07-22 04:00:00 21.9 30 Norte 46 Norte 0 1016.1 -1.8 78
2019-07-22 03:00:00 22.1 26 Noroeste 39 Noroeste 0 1016.3 -1.5 75
2019-07-22 02:00:00 22.3 24 Norte 37 Norte 0 1017.1 -0.5 78
2019-07-22 01:00:00 22.3 26 Norte 41 Norte 0 1017.9 1.1 80
2019-07-22 00:00:00 22.5 25 Norte 41 Norte 0 1017.8 1.2 82
2019-07-21 23:00:00 22.3 28 Norte 45 Norte 0 1017.6 1.4 79
2019-07-21 22:00:00 22.5 28 Noroeste 41 Noroeste 0 1016.8 0.7 77
2019-07-21 21:00:00 22.7 27 Noroeste 37 Noroeste 0 1016.6 0.4 79
2019-07-21 20:00:00 22.8 22 Noroeste 32 Norte 0 1016.2 -0.2 77
2019-07-21 19:00:00 23 26 Norte 37 Norte 0 1016.1 -0.4 76
2019-07-21 18:00:00 23.6 21 Norte 37 Norte 0 1016.2 -0.5 75
2019-07-21 17:00:00 24.1 24 Noroeste 39 Noroeste 0 1016.4 -0.8 72
2019-07-21 16:00:00 24.2 28 Norte 39 Noroeste 0 1016.5 -0.7 71
2019-07-21 15:00:00 24.3 25 Noroeste 35 Norte 0 1016.7 -0.4 67
2019-07-21 14:00:00 25 23 Norte 37 Norte 0 1017.2 0.3 67
2019-07-21 13:00:00 24.7 26 Norte 37 Norte 0 1017.2 0.4 71
2019-07-21 12:00:00 24.5 27 Norte 39 Norte 0 1017.1 0.7 69
2019-07-21 11:00:00 23.6 22 Norte 35 Noroeste 0 1016.9 1 70
2019-07-21 10:00:00 23 22 Noroeste 37 Norte 0 1016.8 1.2 71
2019-07-21 09:00:00 22.3 31 Norte 41 Norte 0 1016.4 1 79
2019-07-21 08:00:00 22.1 35 Norte 48 Norte 0 1015.9 0.4 78
2019-07-21 07:00:00 22 28 Norte 41 Norte 0 1015.6 -0.2 81
2019-07-21 06:00:00 22.2 22 Norte 33 Norte 0 1015.4 -0.5 83
2019-07-21 05:00:00 22.2 23 Norte 35 Norte 0 1015.5 -0.7 79
2019-07-21 04:00:00 22.2 23 Norte 45 Norte 0 1015.8 -1.1 85
2019-07-21 03:00:00 22.3 29 Norte 45 Norte 0 1015.9 -1.2 83
2019-07-21 02:00:00 22.6 31 Norte 42 Norte 0 1016.2 -0.5 80
2019-07-21 01:00:00 22.5 19 Noroeste 32 Norte 0 1016.9 0.5 74
2019-07-21 00:00:00 22.4 19 Noroeste 33 Norte 0 1017.1 1.3 78